Time;durP1;ratioP1;P1;durP2;ratioP2;P2;SDS_P1;SDS_P2;PMS_P1;PMS_P2;Temp;Humidity;BMP_temperature;BMP_pressure;BME280_temperature;BME280_humidity;BME280_pressure;Samples;Min_cycle;Max_cycle;Signal;HPM_P1;HPM_P2
2022/01/03 00:00:19;;;;;;;6.70;1.50;;;15.10;63.20;;;;;;5039407;28;20021;-40
2022/01/03 00:02:45;;;;;;;7.95;1.75;;;15.10;63.20;;;;;;5057429;28;20095;-40
2022/01/03 00:05:11;;;;;;;8.95;1.80;;;15.10;63.20;;;;;;5057911;28;20484;-41
2022/01/03 00:07:40;;;;;;;8.43;1.80;;;15.10;63.10;;;;;;5058029;28;20027;-40
2022/01/03 00:10:06;;;;;;;10.25;1.73;;;15.10;63.20;;;;;;5058336;28;20017;-40
2022/01/03 00:12:32;;;;;;;8.93;2.00;;;15.10;63.10;;;;;;5039787;28;20024;-39
2022/01/03 00:14:59;;;;;;;9.20;1.90;;;15.10;63.10;;;;;;5056884;28;20025;-36
2022/01/03 00:17:26;;;;;;;7.68;1.73;;;15.10;63.10;;;;;;5056862;28;20024;-36
2022/01/03 00:19:52;;;;;;;9.10;2.00;;;15.10;63.10;;;;;;5057040;28;20009;-36
2022/01/03 00:22:21;;;;;;;6.05;1.70;;;15.10;63.00;;;;;;5056328;28;20492;-36
2022/01/03 00:25:06;;;;;;;6.78;1.80;;;15.10;63.10;;;;;;5056701;28;20159;-36
2022/01/03 00:27:44;;;;;;;7.03;1.75;;;15.10;63.10;;;;;;5038565;28;20410;-36
2022/01/03 00:30:11;;;;;;;8.85;1.95;;;15.10;63.10;;;;;;5040022;28;20024;-36
2022/01/03 00:32:38;;;;;;;8.50;1.92;;;15.00;63.00;;;;;;5056677;28;20025;-36
2022/01/03 00:35:07;;;;;;;7.78;1.70;;;15.10;63.00;;;;;;5056085;28;20045;-36
2022/01/03 00:37:33;;;;;;;8.45;1.80;;;15.10;62.90;;;;;;5056015;28;20020;-36
2022/01/03 00:39:59;;;;;;;6.72;1.85;;;15.10;62.90;;;;;;5038608;28;20013;-37
2022/01/03 00:42:25;;;;;;;6.45;1.30;;;15.10;62.90;;;;;;5056801;28;20033;-36
2022/01/03 00:44:54;;;;;;;7.93;1.88;;;15.10;62.90;;;;;;5055950;28;20017;-36
2022/01/03 00:47:20;;;;;;;8.75;1.95;;;15.10;62.90;;;;;;5055549;28;20459;-36
2022/01/03 00:49:45;;;;;;;8.63;1.88;;;15.10;62.80;;;;;;5055622;28;20080;-36
2022/01/03 00:52:12;;;;;;;8.48;1.92;;;15.10;62.80;;;;;;5055353;28;20479;-36
2022/01/03 00:54:38;;;;;;;9.35;2.05;;;15.00;62.80;;;;;;5055091;28;20099;-36
2022/01/03 00:57:06;;;;;;;9.15;1.98;;;15.00;62.90;;;;;;5055739;28;20017;-36
2022/01/03 00:59:42;;;;;;;9.30;1.80;;;15.10;63.00;;;;;;5037923;28;20009;-36
2022/01/03 01:02:08;;;;;;;8.82;2.15;;;15.00;62.80;;;;;;5037609;28;20032;-36
2022/01/03 01:04:34;;;;;;;7.43;1.90;;;15.00;62.70;;;;;;5055683;28;20017;-36
2022/01/03 01:07:00;;;;;;;7.15;1.73;;;15.10;62.80;;;;;;5054805;28;20016;-36
2022/01/03 01:09:27;;;;;;;7.47;1.70;;;15.10;62.80;;;;;;5055570;28;20063;-36
2022/01/03 01:11:54;;;;;;;6.00;1.70;;;15.00;62.70;;;;;;5055484;28;20021;-36
2022/01/03 01:14:20;;;;;;;7.00;1.83;;;15.00;62.70;;;;;;5055606;28;20021;-36
2022/01/03 01:16:47;;;;;;;7.53;1.65;;;15.00;62.80;;;;;;5037635;28;20024;-36
2022/01/03 01:19:13;;;;;;;5.32;1.50;;;15.00;62.80;;;;;;5055204;28;20028;-36
2022/01/03 01:21:40;;;;;;;8.35;1.90;;;15.00;62.70;;;;;;5055536;28;20087;-36
2022/01/03 01:24:10;;;;;;;9.10;2.20;;;15.00;62.80;;;;;;5055334;28;20023;-37
2022/01/03 01:29:20;;;;;;;8.07;1.80;;;15.00;62.70;;;;;;5055579;28;20029;-36
2022/01/03 01:31:55;;;;;;;8.48;1.70;;;15.00;62.80;;;;;;5055388;28;20029;-37
2022/01/03 01:34:22;;;;;;;6.93;1.90;;;15.00;62.70;;;;;;5055674;28;20025;-37
2022/01/03 01:36:52;;;;;;;7.30;1.73;;;15.00;62.80;;;;;;5037036;28;20017;-38
2022/01/03 01:39:19;;;;;;;7.93;1.60;;;15.00;62.80;;;;;;5055237;28;20009;-37
2022/01/03 01:41:45;;;;;;;10.05;2.47;;;15.00;62.70;;;;;;5056111;28;20021;-37
2022/01/03 01:44:11;;;;;;;8.63;2.10;;;15.00;62.70;;;;;;5055911;28;20024;-36
2022/01/03 01:46:53;;;;;;;7.85;1.80;;;15.00;62.60;;;;;;5054147;28;20048;-36
2022/01/03 01:49:21;;;;;;;9.00;1.92;;;15.00;62.70;;;;;;5057355;28;20044;-36
2022/01/03 01:51:50;;;;;;;8.45;2.03;;;15.00;62.60;;;;;;5056745;28;20066;-36
2022/01/03 01:54:17;;;;;;;8.07;2.25;;;15.00;62.60;;;;;;5036214;28;20045;-39
2022/01/03 01:57:00;;;;;;;8.95;1.88;;;15.00;62.60;;;;;;5053953;28;20033;-38
2022/01/03 01:59:34;;;;;;;8.65;1.80;;;15.00;62.70;;;;;;5038616;28;20055;-39
2022/01/03 02:02:05;;;;;;;7.22;1.73;;;15.00;62.70;;;;;;5057131;28;20013;-39
2022/01/03 02:04:35;;;;;;;9.63;2.38;;;15.00;62.60;;;;;;5057709;28;20020;-40
2022/01/03 02:07:12;;;;;;;;;;;15.00;62.60;;;;;;5058025;28;20021;-39
2022/01/03 02:09:42;;;;;;;8.90;1.92;;;15.00;62.60;;;;;;5057856;28;19968;-39
2022/01/03 02:12:15;;;;;;;9.07;1.70;;;15.00;62.70;;;;;;5040278;28;20020;-39
2022/01/03 02:14:41;;;;;;;7.30;1.70;;;15.00;62.70;;;;;;5057145;28;20028;-36
2022/01/03 02:17:08;;;;;;;8.82;2.13;;;15.00;62.70;;;;;;5055951;28;20032;-36
2022/01/03 02:19:40;;;;;;;9.75;2.05;;;15.00;62.60;;;;;;5039355;28;20082;-37
2022/01/03 02:22:06;;;;;;;9.25;2.20;;;15.00;62.60;;;;;;5056883;28;20035;-37
2022/01/03 02:24:31;;;;;;;7.45;1.73;;;15.00;62.60;;;;;;5038839;28;20038;-36
2022/01/03 02:27:00;;;;;;;8.48;2.08;;;15.00;62.60;;;;;;5057553;28;20029;-36
2022/01/03 02:29:26;;;;;;;8.23;1.95;;;15.00;62.70;;;;;;5056086;28;20080;-36
2022/01/03 02:31:52;;;;;;;7.40;1.77;;;15.00;62.60;;;;;;5055523;28;20025;-37
2022/01/03 02:34:19;;;;;;;8.98;2.20;;;15.00;62.60;;;;;;5054282;28;20047;-39
2022/01/03 02:36:45;;;;;;;7.57;1.75;;;14.90;62.60;;;;;;5054485;28;20092;-38
2022/01/03 02:39:12;;;;;;;7.97;2.15;;;14.90;62.60;;;;;;5054051;28;20032;-38
2022/01/03 02:41:38;;;;;;;8.95;2.05;;;15.00;62.60;;;;;;5054264;28;20040;-40
2022/01/03 02:44:05;;;;;;;9.48;2.03;;;14.90;62.60;;;;;;5054340;28;20024;-39
2022/01/03 02:46:32;;;;;;;10.68;2.47;;;15.00;62.50;;;;;;5054745;28;20104;-39
2022/01/03 02:48:59;;;;;;;10.02;1.90;;;15.00;62.50;;;;;;5054609;28;20062;-38
2022/01/03 02:51:25;;;;;;;8.13;1.80;;;15.00;62.50;;;;;;5054201;28;20017;-38
2022/01/03 02:53:52;;;;;;;9.13;2.33;;;15.00;62.50;;;;;;5054474;28;20475;-39
2022/01/03 02:56:19;;;;;;;6.97;1.80;;;14.90;62.50;;;;;;5055985;28;20021;-40
2022/01/03 02:58:47;;;;;;;11.00;2.03;;;14.90;62.50;;;;;;5055237;28;20075;-40
2022/01/03 03:01:13;;;;;;;7.72;1.90;;;14.90;62.50;;;;;;5053769;28;20096;-40
2022/01/03 03:03:41;;;;;;;6.38;1.75;;;14.90;62.50;;;;;;5053440;28;20033;-40
2022/01/03 03:06:07;;;;;;;10.38;2.00;;;14.90;62.50;;;;;;5053419;28;20013;-40
2022/01/03 03:08:36;;;;;;;10.63;2.00;;;14.90;62.40;;;;;;5053075;28;20044;-40
2022/01/03 03:11:03;;;;;;;9.57;2.10;;;14.90;62.50;;;;;;5053572;28;20537;-40
2022/01/03 03:13:30;;;;;;;6.38;1.75;;;14.90;62.60;;;;;;5053490;28;20029;-39
2022/01/03 03:15:55;;;;;;;8.77;2.05;;;14.90;62.40;;;;;;5036214;28;20010;-42
2022/01/03 03:18:21;;;;;;;10.02;2.03;;;14.90;62.40;;;;;;5037330;28;20025;-42
2022/01/03 03:20:47;;;;;;;6.85;1.80;;;14.90;62.40;;;;;;5036906;28;20014;-41
2022/01/03 03:23:14;;;;;;;8.15;1.83;;;14.90;62.50;;;;;;5053749;28;20066;-41
2022/01/03 03:25:41;;;;;;;7.70;1.70;;;14.90;62.40;;;;;;5053206;28;20028;-40
2022/01/03 03:28:09;;;;;;;9.95;2.33;;;14.90;62.40;;;;;;5036419;28;20395;-45
2022/01/03 03:30:37;;;;;;;6.47;1.90;;;14.90;62.40;;;;;;5041946;28;20013;-44
2022/01/03 03:33:15;;;;;;;7.60;1.75;;;14.90;62.40;;;;;;5060659;28;20025;-43
2022/01/03 03:35:42;;;;;;;8.80;1.85;;;14.90;62.40;;;;;;5043840;28;20065;-45
2022/01/03 03:38:08;;;;;;;7.50;1.85;;;14.90;62.40;;;;;;5060878;28;20017;-43
2022/01/03 03:40:35;;;;;;;11.20;2.03;;;14.90;62.40;;;;;;5060424;28;20042;-43
2022/01/03 03:43:00;;;;;;;7.50;1.42;;;14.90;62.40;;;;;;5042393;28;20112;-40
2022/01/03 03:45:29;;;;;;;7.93;1.98;;;14.90;62.40;;;;;;5042041;28;20052;-41
2022/01/03 03:47:57;;;;;;;10.07;2.03;;;14.90;62.40;;;;;;5060158;28;20464;-41
2022/01/03 03:50:23;;;;;;;8.35;2.13;;;14.90;62.40;;;;;;5057816;28;20025;-41
2022/01/03 03:52:49;;;;;;;7.90;2.00;;;14.90;62.30;;;;;;5060960;28;20040;-42
2022/01/03 03:55:15;;;;;;;9.75;2.00;;;14.90;62.30;;;;;;5061056;28;20029;-42
2022/01/03 03:57:42;;;;;;;8.55;1.90;;;14.90;62.20;;;;;;5040405;28;20023;-42
2022/01/03 04:00:11;;;;;;;9.57;2.10;;;14.90;62.30;;;;;;5062841;28;20013;-45
2022/01/03 04:02:38;;;;;;;10.20;1.90;;;14.90;62.30;;;;;;5063178;28;20017;-44
2022/01/03 04:05:05;;;;;;;8.13;2.03;;;14.90;62.30;;;;;;5062538;28;20020;-42
2022/01/03 04:07:31;;;;;;;7.32;1.67;;;14.90;62.30;;;;;;5060901;28;20021;-42
2022/01/03 04:09:58;;;;;;;7.88;1.95;;;14.90;62.30;;;;;;5060681;28;20093;-41
2022/01/03 04:12:23;;;;;;;8.30;1.90;;;14.90;62.30;;;;;;5060761;28;20440;-41
2022/01/03 04:14:50;;;;;;;9.70;1.80;;;14.90;62.30;;;;;;5056588;28;20057;-36
2022/01/03 04:17:16;;;;;;;10.43;2.47;;;14.90;62.30;;;;;;5038591;28;20106;-36
2022/01/03 04:19:43;;;;;;;8.35;1.95;;;14.90;62.30;;;;;;5038256;28;20013;-35
2022/01/03 04:22:09;;;;;;;8.10;2.13;;;14.90;62.20;;;;;;5056015;28;20017;-35
2022/01/03 04:24:35;;;;;;;8.85;2.05;;;14.90;62.20;;;;;;5056379;28;20017;-35
2022/01/03 04:27:01;;;;;;;9.27;2.13;;;14.90;62.30;;;;;;5056127;28;20020;-35
2022/01/03 04:29:29;;;;;;;7.60;1.70;;;14.90;62.30;;;;;;5055712;28;20020;-36
2022/01/03 04:31:55;;;;;;;8.10;1.95;;;14.90;62.20;;;;;;5055643;28;20021;-36
2022/01/03 04:34:21;;;;;;;8.68;1.95;;;14.90;62.20;;;;;;5055886;28;20108;-36
2022/01/03 04:36:48;;;;;;;7.97;2.22;;;14.90;62.30;;;;;;5055878;28;20083;-36
2022/01/03 04:39:14;;;;;;;9.40;1.90;;;14.90;62.20;;;;;;5055860;28;20014;-35
2022/01/03 04:41:39;;;;;;;10.63;1.92;;;14.90;62.20;;;;;;5037181;28;20024;-35
2022/01/03 04:44:06;;;;;;;6.57;1.77;;;14.90;62.20;;;;;;5055255;28;20028;-35
2022/01/03 04:46:35;;;;;;;10.13;2.20;;;14.90;62.20;;;;;;5055160;28;20014;-35
2022/01/03 04:49:01;;;;;;;7.30;2.20;;;14.90;62.10;;;;;;5055139;28;20013;-35
2022/01/03 04:51:27;;;;;;;8.75;1.77;;;14.90;62.10;;;;;;5054850;28;20029;-35
2022/01/03 04:53:53;;;;;;;7.00;1.60;;;14.90;62.10;;;;;;5054608;28;20104;-35
2022/01/03 04:56:18;;;;;;;10.05;2.13;;;14.90;62.20;;;;;;5054979;28;20017;-35
2022/01/03 04:58:44;;;;;;;11.85;2.67;;;14.80;62.20;;;;;;5055135;28;20495;-35
2022/01/03 05:01:10;;;;;;;8.65;1.98;;;14.90;62.20;;;;;;5036880;28;20476;-35
2022/01/03 05:03:36;;;;;;;7.90;2.22;;;14.90;62.10;;;;;;5055383;28;20369;-35
2022/01/03 05:06:02;;;;;;;10.07;1.85;;;14.90;62.10;;;;;;5055689;28;20021;-35
2022/01/03 05:08:29;;;;;;;7.60;1.73;;;14.90;62.10;;;;;;5037338;28;20572;-35
2022/01/03 05:10:56;;;;;;;9.82;1.80;;;14.90;61.90;;;;;;5055233;28;20017;-35
2022/01/03 05:13:22;;;;;;;6.88;1.67;;;14.90;61.90;;;;;;5055150;28;20380;-36
2022/01/03 05:15:49;;;;;;;12.55;2.30;;;14.90;62.00;;;;;;5055067;28;20035;-38
2022/01/03 05:18:15;;;;;;;9.65;2.00;;;14.90;62.10;;;;;;5054288;28;20044;-38
2022/01/03 05:20:41;;;;;;;8.30;2.55;;;14.90;62.10;;;;;;5054593;28;20048;-38
2022/01/03 05:23:08;;;;;;;6.50;1.65;;;14.90;62.00;;;;;;5054202;28;20028;-39
2022/01/03 05:25:34;;;;;;;7.60;1.85;;;14.90;62.10;;;;;;5054186;28;20107;-37
2022/01/03 05:28:01;;;;;;;8.93;2.17;;;14.90;62.20;;;;;;5054127;28;20024;-37
2022/01/03 05:30:28;;;;;;;6.97;1.88;;;14.90;62.20;;;;;;5054381;28;20032;-37
2022/01/03 05:32:54;;;;;;;8.82;2.05;;;14.80;62.10;;;;;;5036236;28;20028;-37
2022/01/03 05:35:21;;;;;;;9.25;2.15;;;14.90;62.10;;;;;;5054226;28;20017;-39
2022/01/03 05:37:47;;;;;;;9.68;2.10;;;14.90;62.00;;;;;;5054098;28;20021;-38
2022/01/03 05:40:13;;;;;;;8.15;1.92;;;14.90;62.00;;;;;;5054104;28;20493;-38
2022/01/03 05:42:41;;;;;;;7.35;2.00;;;14.80;62.00;;;;;;5036127;28;20021;-39
2022/01/03 05:45:07;;;;;;;8.40;2.00;;;14.90;62.20;;;;;;5053749;28;20029;-40
2022/01/03 05:47:34;;;;;;;7.43;1.60;;;14.80;62.20;;;;;;5053934;28;20017;-38
2022/01/03 05:49:59;;;;;;;7.43;1.60;;;14.80;62.10;;;;;;5054030;28;20032;-38
2022/01/03 05:52:26;;;;;;;7.85;1.90;;;14.80;62.10;;;;;;5053120;28;20017;-39
2022/01/03 05:54:53;;;;;;;8.95;2.20;;;14.90;62.00;;;;;;5053377;28;20500;-35
2022/01/03 05:57:19;;;;;;;6.97;1.80;;;14.90;62.10;;;;;;5053652;28;20019;-35
2022/01/03 05:59:45;;;;;;;7.47;2.08;;;14.90;62.00;;;;;;5054031;28;20017;-36
2022/01/03 06:02:12;;;;;;;10.60;2.40;;;14.90;62.00;;;;;;5054575;28;20020;-36
2022/01/03 06:04:54;;;;;;;11.15;2.30;;;14.90;62.00;;;;;;5054303;28;20029;-35
2022/01/03 06:07:20;;;;;;;6.32;1.70;;;14.80;61.90;;;;;;5054073;28;20056;-36
2022/01/03 06:09:47;;;;;;;11.38;2.70;;;14.80;62.00;;;;;;5054061;28;20487;-35
2022/01/03 06:12:13;;;;;;;8.15;1.75;;;14.80;62.10;;;;;;5054042;28;20477;-35
2022/01/03 06:14:39;;;;;;;8.30;2.35;;;14.80;62.00;;;;;;5053226;28;20028;-38
2022/01/03 06:17:05;;;;;;;8.77;1.73;;;14.80;62.00;;;;;;5053430;28;20028;-37
2022/01/03 06:19:34;;;;;;;6.25;1.60;;;14.80;62.10;;;;;;5053232;28;20044;-38
2022/01/03 06:22:00;;;;;;;8.25;1.60;;;14.80;62.10;;;;;;5053168;28;20096;-39
2022/01/03 06:24:27;;;;;;;7.60;1.75;;;14.80;62.00;;;;;;5035986;28;20025;-38
2022/01/03 06:26:53;;;;;;;7.70;1.55;;;14.90;62.00;;;;;;5053200;28;20536;-38
2022/01/03 06:29:19;;;;;;;6.45;1.70;;;14.80;61.80;;;;;;5036398;28;20545;-38
2022/01/03 06:31:45;;;;;;;7.07;1.92;;;14.80;61.80;;;;;;5054188;28;20013;-38
2022/01/03 06:34:11;;;;;;;7.95;1.85;;;14.90;62.00;;;;;;5036612;28;20399;-38
2022/01/03 06:36:37;;;;;;;8.15;2.17;;;14.80;61.90;;;;;;5054063;28;20021;-36
2022/01/03 06:39:05;;;;;;;7.82;1.45;;;14.80;61.90;;;;;;5037092;28;20009;-35
2022/01/03 06:41:31;;;;;;;9.20;1.80;;;14.80;61.90;;;;;;5053328;28;20479;-35
2022/01/03 06:43:56;;;;;;;9.15;2.22;;;14.80;61.90;;;;;;5035520;28;20463;-35
2022/01/03 06:46:23;;;;;;;7.65;1.95;;;14.80;61.90;;;;;;5052920;28;20549;-35
2022/01/03 06:48:49;;;;;;;7.45;1.90;;;14.90;61.80;;;;;;5035439;28;20028;-35
2022/01/03 06:51:15;;;;;;;10.50;1.90;;;14.90;61.80;;;;;;5052826;28;20383;-35
2022/01/03 06:53:41;;;;;;;7.30;1.70;;;14.80;61.80;;;;;;5052869;28;20035;-35
2022/01/03 06:56:07;;;;;;;7.32;1.80;;;14.80;61.90;;;;;;5035316;28;20096;-37
2022/01/03 06:58:33;;;;;;;7.82;2.05;;;14.80;61.90;;;;;;5053320;28;20025;-38
2022/01/03 07:00:58;;;;;;;7.88;1.90;;;14.80;61.90;;;;;;5036474;28;20052;-39
2022/01/03 07:03:24;;;;;;;7.43;1.70;;;14.80;61.80;;;;;;5054277;28;20021;-39
2022/01/03 07:05:50;;;;;;;8.55;1.85;;;14.80;61.90;;;;;;5057164;28;20537;-38
2022/01/03 07:08:16;;;;;;;8.80;2.20;;;14.80;61.90;;;;;;5058172;28;20594;-39
2022/01/03 07:10:42;;;;;;;7.05;1.45;;;14.90;61.90;;;;;;5058444;28;20404;-39
2022/01/03 07:13:08;;;;;;;7.53;2.00;;;14.80;61.90;;;;;;5058060;28;20025;-39
2022/01/03 07:21:02;;;;;;;7.22;1.92;;;14.80;61.90;;;;;;5057015;28;20029;-35
2022/01/03 07:23:28;;;;;;;6.82;1.75;;;14.80;62.50;;;;;;5039510;28;20051;-35
2022/01/03 07:25:55;;;;;;;7.57;1.73;;;14.80;61.90;;;;;;5039156;28;20475;-36
2022/01/03 07:28:21;;;;;;;7.47;1.85;;;14.80;61.90;;;;;;5056884;28;20041;-37
2022/01/03 07:30:48;;;;;;;8.73;1.80;;;14.80;61.90;;;;;;5056626;28;20547;-35
2022/01/03 07:33:13;;;;;;;7.45;1.90;;;14.80;61.90;;;;;;5057299;28;20021;-35
2022/01/03 07:35:39;;;;;;;8.93;1.70;;;14.80;61.80;;;;;;5057496;28;20120;-38
2022/01/03 07:38:05;;;;;;;7.30;2.08;;;14.80;61.80;;;;;;5057453;28;20357;-38
2022/01/03 07:40:33;;;;;;;7.47;1.52;;;14.80;61.80;;;;;;5057378;28;20079;-39
2022/01/03 07:43:00;;;;;;;7.82;2.00;;;14.80;61.80;;;;;;5056970;28;20563;-38
2022/01/03 07:45:26;;;;;;;6.18;1.48;;;14.80;61.80;;;;;;5056848;28;20021;-39
2022/01/03 07:47:54;;;;;;;8.15;1.75;;;14.80;61.70;;;;;;5057152;28;20024;-38
2022/01/03 07:50:20;;;;;;;6.53;1.90;;;14.80;61.70;;;;;;5056984;28;20032;-39
2022/01/03 07:52:46;;;;;;;6.13;1.75;;;14.80;61.70;;;;;;5038527;28;20017;-38
2022/01/03 07:55:12;;;;;;;6.10;1.70;;;14.80;61.80;;;;;;5038954;28;20075;-40
2022/01/03 07:57:39;;;;;;;8.35;1.90;;;14.80;61.80;;;;;;5058543;28;20082;-39
2022/01/03 08:00:10;;;;;;;7.97;2.10;;;14.80;61.80;;;;;;5058992;28;20084;-39
2022/01/03 08:02:38;;;;;;;6.75;1.60;;;14.80;61.90;;;;;;5060846;28;20010;-39
2022/01/03 08:05:05;;;;;;;9.00;1.88;;;14.80;61.80;;;;;;5061793;28;20020;-44
2022/01/03 08:07:31;;;;;;;7.72;2.08;;;14.80;61.70;;;;;;5042541;28;20025;-43
2022/01/03 08:09:58;;;;;;;5.78;1.35;;;14.80;61.70;;;;;;5057597;28;20024;-44
2022/01/03 08:12:24;;;;;;;6.78;1.70;;;14.80;61.70;;;;;;5059483;28;20032;-39
2022/01/03 08:14:50;;;;;;;9.05;1.83;;;14.90;61.60;;;;;;5041152;28;20021;-40
2022/01/03 08:17:16;;;;;;;7.28;1.85;;;14.80;61.70;;;;;;5041971;28;20025;-40
2022/01/03 08:19:43;;;;;;;6.65;1.60;;;14.80;62.00;;;;;;5059229;28;20366;-50
2022/01/03 08:22:09;;;;;;;8.20;1.95;;;14.80;61.80;;;;;;5042055;28;20013;-45
2022/01/03 08:24:35;;;;;;;8.75;1.90;;;14.80;61.90;;;;;;5058508;28;20506;-49
2022/01/03 08:27:01;;;;;;;7.40;1.77;;;14.70;61.80;;;;;;5058813;28;20375;-40
2022/01/03 08:29:28;;;;;;;7.38;1.90;;;14.80;61.80;;;;;;5058984;28;20029;-50
2022/01/03 08:31:53;;;;;;;8.57;2.00;;;14.80;61.70;;;;;;5059215;28;20036;-48
2022/01/03 08:34:19;;;;;;;8.07;2.15;;;14.80;61.80;;;;;;5058040;28;20080;-53
2022/01/03 08:36:45;;;;;;;7.13;1.63;;;14.80;62.00;;;;;;5058728;28;20557;-40
2022/01/03 08:39:12;;;;;;;7.05;1.58;;;14.80;61.80;;;;;;5058191;28;20041;-46
2022/01/03 08:41:38;;;;;;;6.65;1.70;;;14.80;61.90;;;;;;5058589;28;20021;-39
2022/01/03 08:44:04;;;;;;;7.30;1.80;;;14.80;61.80;;;;;;5057790;28;20539;-41
2022/01/03 08:46:30;;;;;;;11.52;2.28;;;14.80;61.80;;;;;;5058333;28;20021;-40
2022/01/03 08:48:57;;;;;;;9.38;2.00;;;14.70;61.70;;;;;;5057760;28;20483;-40
2022/01/03 08:51:22;;;;;;;7.32;1.75;;;14.70;61.80;;;;;;5057845;28;20021;-40
2022/01/03 08:53:48;;;;;;;8.57;2.55;;;14.70;61.80;;;;;;5057705;28;20391;-39
2022/01/03 08:56:14;;;;;;;9.48;1.95;;;14.80;61.70;;;;;;5040239;28;20445;-40
2022/01/03 08:58:40;;;;;;;11.10;1.98;;;14.80;61.80;;;;;;5057890;28;20541;-40
2022/01/03 09:01:07;;;;;;;6.43;1.90;;;14.80;61.80;;;;;;5057880;28;20020;-40
2022/01/03 09:03:33;;;;;;;7.97;2.05;;;14.80;61.80;;;;;;5057599;28;20013;-40
2022/01/03 09:05:59;;;;;;;6.53;1.77;;;14.80;61.90;;;;;;5057639;28;20021;-39
2022/01/03 09:08:25;;;;;;;7.75;2.38;;;14.70;61.80;;;;;;5057554;28;20078;-40
2022/01/03 09:10:53;;;;;;;9.02;1.83;;;14.80;61.80;;;;;;5057554;28;20021;-40
2022/01/03 09:13:20;;;;;;;6.03;1.63;;;14.80;61.80;;;;;;5039862;28;20024;-40
2022/01/03 09:15:46;;;;;;;7.07;1.80;;;14.70;61.80;;;;;;5057203;28;20025;-39
2022/01/03 09:18:13;;;;;;;6.53;1.65;;;14.80;61.80;;;;;;5039656;28;20009;-41
2022/01/03 09:20:38;;;;;;;9.32;2.45;;;14.80;61.80;;;;;;5057027;28;20013;-43
2022/01/03 09:23:13;;;;;;;6.47;1.73;;;14.80;61.80;;;;;;5057125;28;20155;-45
2022/01/03 09:30:49;;;;;;;6.35;1.67;;;14.80;61.70;;;;;;5057437;28;20052;-42
2022/01/03 09:33:15;;;;;;;7.97;1.95;;;14.80;61.80;;;;;;5057475;28;20025;-41
2022/01/03 09:35:41;;;;;;;6.13;1.90;;;14.80;61.70;;;;;;5057390;28;20451;-42
2022/01/03 09:38:07;;;;;;;7.25;1.67;;;14.70;61.70;;;;;;5056735;28;20028;-40
2022/01/03 09:40:34;;;;;;;8.35;1.88;;;14.80;61.80;;;;;;5056919;28;20024;-43
2022/01/03 09:43:00;;;;;;;6.22;1.65;;;14.80;61.80;;;;;;5056406;28;20020;-40
2022/01/03 09:45:28;;;;;;;6.90;1.80;;;14.70;61.70;;;;;;5057076;28;20023;-39
2022/01/03 09:47:55;;;;;;;7.82;1.70;;;14.70;61.80;;;;;;5056740;28;20020;-41
2022/01/03 09:50:21;;;;;;;5.47;1.60;;;14.80;61.90;;;;;;5038778;28;20013;-40
2022/01/03 09:52:50;;;;;;;7.85;2.15;;;14.70;61.90;;;;;;5056375;28;20475;-39
2022/01/03 09:55:18;;;;;;;9.18;1.77;;;14.80;61.90;;;;;;5056494;28;20044;-35
2022/01/03 09:57:45;;;;;;;6.22;1.88;;;14.80;61.90;;;;;;5056752;28;20037;-35
2022/01/03 10:00:24;;;;;;;7.85;1.77;;;14.80;62.00;;;;;;5038726;28;20104;-35
2022/01/03 10:02:51;;;;;;;7.22;1.88;;;14.70;61.90;;;;;;5056304;28;20009;-36
2022/01/03 10:05:17;;;;;;;7.55;1.67;;;14.70;61.80;;;;;;5056595;28;20021;-35
2022/01/03 10:07:44;;;;;;;7.93;1.80;;;14.70;61.80;;;;;;5055865;28;20024;-36
2022/01/03 10:10:11;;;;;;;6.70;2.05;;;14.70;61.90;;;;;;5054192;28;20016;-35
2022/01/03 10:12:37;;;;;;;7.30;2.03;;;14.70;61.90;;;;;;5054099;28;20472;-37
2022/01/03 10:15:04;;;;;;;6.95;1.92;;;14.80;61.90;;;;;;5055054;28;20074;-36
2022/01/03 10:17:35;;;;;;;8.03;2.07;;;14.80;62.00;;;;;;5055531;28;20131;-36
2022/01/03 10:20:01;;;;;;;7.53;1.98;;;14.70;62.00;;;;;;5055701;28;20479;-36
2022/01/03 10:22:29;;;;;;;7.40;1.70;;;14.70;62.00;;;;;;5055587;28;20025;-36
2022/01/03 10:24:57;;;;;;;8.20;1.85;;;14.80;62.00;;;;;;5054997;28;20024;-36
2022/01/03 10:27:23;;;;;;;6.45;1.70;;;14.70;61.90;;;;;;5055082;28;20081;-36
2022/01/03 10:29:56;;;;;;;6.78;1.67;;;14.70;61.90;;;;;;5053858;28;20025;-36
2022/01/03 10:32:29;;;;;;;7.40;1.85;;;14.70;61.90;;;;;;5053302;28;20471;-36
2022/01/03 10:34:57;;;;;;;6.45;2.17;;;14.70;62.00;;;;;;5053281;28;20025;-38
2022/01/03 10:37:34;;;;;;;6.10;1.52;;;14.70;62.10;;;;;;5053382;28;20021;-38
2022/01/03 10:40:14;;;;;;;6.45;1.70;;;14.70;62.10;;;;;;5053451;28;20013;-37
2022/01/03 10:42:40;;;;;;;6.57;1.60;;;14.70;62.00;;;;;;5037646;28;20028;-39
2022/01/03 10:45:07;;;;;;;7.65;2.00;;;14.70;62.10;;;;;;5053075;28;20029;-38
2022/01/03 10:47:34;;;;;;;8.90;1.90;;;14.80;62.10;;;;;;5035760;28;20052;-38
2022/01/03 10:50:11;;;;;;;7.85;1.83;;;14.70;61.90;;;;;;5053978;28;20025;-37
2022/01/03 10:52:39;;;;;;;8.32;2.05;;;14.70;62.00;;;;;;5054001;28;20021;-38
2022/01/03 10:55:09;;;;;;;9.32;2.08;;;14.80;62.00;;;;;;5053763;28;20049;-39
2022/01/03 10:57:52;;;;;;;6.90;1.80;;;14.70;62.10;;;;;;5020198;28;20063;-39
2022/01/03 11:00:29;;;;;;;6.68;2.13;;;14.70;62.00;;;;;;5055618;28;20021;-40
2022/01/03 11:03:24;;;;;;;9.02;1.65;;;14.70;62.10;;;;;;5056276;28;20071;-42
2022/01/03 11:06:01;;;;;;;6.80;1.60;;;14.70;62.10;;;;;;5056380;28;20028;-41
2022/01/03 11:11:12;;;;;;;8.88;2.47;;;14.80;62.00;;;;;;5056166;28;20111;-39
2022/01/03 11:13:41;;;;;;;6.80;1.85;;;14.80;62.10;;;;;;5055702;28;20071;-41
2022/01/03 11:16:08;;;;;;;9.70;2.15;;;14.80;62.20;;;;;;5055805;28;20016;-41
2022/01/03 11:18:38;;;;;;;6.88;2.00;;;14.70;62.10;;;;;;5055456;28;20016;-39
2022/01/03 11:21:14;;;;;;;9.05;1.95;;;14.70;62.10;;;;;;5037668;28;20009;-40
2022/01/03 11:23:41;;;;;;;7.25;2.05;;;14.70;62.20;;;;;;5055176;28;20762;-42
2022/01/03 11:26:12;;;;;;;6.50;1.90;;;14.80;62.30;;;;;;5054339;28;20015;-40
2022/01/03 11:28:39;;;;;;;6.88;1.92;;;14.70;62.20;;;;;;5036028;28;20432;-39
2022/01/03 11:31:05;;;;;;;9.18;2.08;;;14.80;62.40;;;;;;5053518;28;20017;-40
2022/01/03 11:33:31;;;;;;;7.78;2.30;;;14.80;62.40;;;;;;5053151;28;20412;-40
2022/01/03 11:35:58;;;;;;;7.88;1.88;;;14.70;62.30;;;;;;5036053;28;20017;-42
2022/01/03 11:38:26;;;;;;;8.98;1.92;;;14.70;62.30;;;;;;5053368;28;20017;-42
2022/01/03 11:40:52;;;;;;;6.28;1.67;;;14.70;62.30;;;;;;5053787;28;20023;-43
2022/01/03 11:43:18;;;;;;;8.02;2.22;;;14.70;62.30;;;;;;5035584;28;20025;-42
2022/01/03 11:45:44;;;;;;;6.13;1.67;;;14.70;62.30;;;;;;5053141;28;20021;-42
2022/01/03 11:48:11;;;;;;;8.07;1.90;;;14.70;62.30;;;;;;5053112;28;20017;-43
2022/01/03 11:50:37;;;;;;;6.50;1.75;;;14.70;62.30;;;;;;5054063;28;20067;-41
2022/01/03 11:53:08;;;;;;;8.57;2.00;;;14.70;62.30;;;;;;5057034;28;20017;-42
2022/01/03 11:55:37;;;;;;;6.35;1.80;;;14.70;62.40;;;;;;5056984;28;20040;-41
2022/01/03 12:06:05;;;;;;;8.20;2.22;;;14.80;62.40;;;;;;5057026;28;20430;-43
2022/01/03 12:08:33;;;;;;;7.38;1.95;;;14.70;62.40;;;;;;5056734;28;20024;-42
2022/01/03 12:11:00;;;;;;;6.75;2.13;;;14.70;62.30;;;;;;5039671;28;20035;-42
2022/01/03 12:13:48;;;;;;;8.43;1.92;;;14.70;62.40;;;;;;5039134;28;20036;-41
2022/01/03 12:16:14;;;;;;;5.65;1.50;;;14.80;62.40;;;;;;5056817;28;20017;-35
2022/01/03 12:18:55;;;;;;;8.48;2.47;;;14.70;62.40;;;;;;5056395;28;20009;-35
2022/01/03 12:21:50;;;;;;;7.05;1.77;;;14.80;62.40;;;;;;5040851;28;20016;-35
2022/01/03 12:24:28;;;;;;;7.97;1.98;;;14.70;62.30;;;;;;5054476;28;20112;-35
2022/01/03 12:27:12;;;;;;;7.32;1.80;;;14.70;62.30;;;;;;5056636;28;20484;-35
2022/01/03 12:29:54;;;;;;;7.38;2.05;;;14.70;62.30;;;;;;5056442;28;20507;-35
2022/01/03 12:32:23;;;;;;;6.13;1.90;;;14.70;62.40;;;;;;5055712;28;20017;-35
2022/01/03 12:35:10;;;;;;;6.40;1.70;;;14.70;62.40;;;;;;5055679;28;20108;-35
2022/01/03 12:37:54;;;;;;;6.82;1.65;;;14.70;62.40;;;;;;5055352;28;20251;-37
2022/01/03 12:40:29;;;;;;;6.40;1.63;;;14.70;62.30;;;;;;5055570;28;20017;-38
2022/01/03 12:43:06;;;;;;;7.05;2.25;;;14.70;62.90;;;;;;5038359;28;20013;-37
2022/01/03 12:45:32;;;;;;;9.18;2.22;;;14.70;62.50;;;;;;5055629;28;20013;-37
2022/01/03 12:48:10;;;;;;;5.25;1.80;;;14.70;63.00;;;;;;5055683;28;20009;-37
2022/01/03 12:50:46;;;;;;;6.60;1.77;;;14.70;62.50;;;;;;5055069;28;20541;-37
2022/01/03 12:53:32;;;;;;;5.43;1.52;;;14.70;62.40;;;;;;5038108;28;20495;-37
2022/01/03 12:56:04;;;;;;;8.15;1.60;;;14.70;62.40;;;;;;5044310;28;20484;-35
2022/01/03 12:58:30;;;;;;;5.60;1.50;;;14.70;62.50;;;;;;5037820;28;20017;-37
2022/01/03 13:01:09;;;;;;;6.88;1.58;;;14.70;62.50;;;;;;5058403;28;20102;-35
2022/01/03 13:03:47;;;;;;;7.60;1.92;;;14.70;62.50;;;;;;5039211;28;20033;-36
2022/01/03 13:06:14;;;;;;;7.38;2.03;;;14.70;62.50;;;;;;5058721;28;20009;-36
2022/01/03 13:08:48;;;;;;;5.43;1.55;;;14.70;62.50;;;;;;5057698;28;20151;-36
2022/01/03 13:11:32;;;;;;;4.97;1.52;;;14.70;62.50;;;;;;5058201;28;20017;-36
2022/01/03 13:14:12;;;;;;;5.20;1.33;;;14.70;62.40;;;;;;5057791;28;20029;-35